Time;durP1;ratioP1;P1;durP2;ratioP2;P2;SDS_P1;SDS_P2;PMS_P1;PMS_P2;Temp;Humidity;BMP_temperature;BMP_pressure;BME280_temperature;BME280_humidity;BME280_pressure;Samples;Min_cycle;Max_cycle;Signal;HPM_P1;HPM_P2
2022/05/24 00:00:22;;;;;;;1.55;1.45;;;22.00;62.20;;;;;;4946605;28;20039;-61
2022/05/24 00:02:47;;;;;;;1.67;1.58;;;22.00;62.10;;;;;;4964713;28;20032;-63
2022/05/24 00:05:13;;;;;;;1.50;1.40;;;22.10;62.10;;;;;;4948489;28;20101;-63
2022/05/24 00:07:40;;;;;;;2.15;1.95;;;22.00;62.00;;;;;;4965527;28;20062;-62
2022/05/24 00:10:08;;;;;;;2.00;1.80;;;22.00;62.00;;;;;;4964303;28;20094;-63
2022/05/24 00:12:33;;;;;;;1.70;1.60;;;22.00;62.00;;;;;;4964433;28;20046;-63
2022/05/24 00:17:51;;;;;;;2.47;2.25;;;22.00;61.80;;;;;;4964666;28;20053;-64
2022/05/24 00:20:17;;;;;;;1.80;1.70;;;22.00;61.70;;;;;;4965591;28;20043;-63
2022/05/24 00:22:42;;;;;;;2.70;2.08;;;22.00;61.60;;;;;;4964224;28;20109;-62
2022/05/24 00:25:08;;;;;;;2.40;2.17;;;22.00;61.50;;;;;;4965544;28;20049;-62
2022/05/24 00:27:34;;;;;;;1.92;1.73;;;22.00;61.50;;;;;;4966487;28;20038;-63
2022/05/24 00:30:00;;;;;;;2.85;1.80;;;22.00;61.50;;;;;;4964776;28;20097;-63
2022/05/24 00:32:26;;;;;;;2.10;1.95;;;22.00;61.40;;;;;;4964631;28;20031;-60
2022/05/24 00:34:52;;;;;;;2.22;1.92;;;22.00;61.40;;;;;;4963688;28;20428;-63
2022/05/24 00:37:21;;;;;;;2.05;1.70;;;22.00;61.30;;;;;;4964243;28;20065;-62
2022/05/24 00:39:47;;;;;;;2.65;1.90;;;22.00;61.20;;;;;;4964944;28;20039;-64
2022/05/24 00:42:18;;;;;;;2.03;1.75;;;22.00;61.20;;;;;;4965150;28;21067;-63
2022/05/24 00:44:49;;;;;;;1.75;1.65;;;22.00;61.10;;;;;;4965564;28;20109;-64
2022/05/24 00:47:20;;;;;;;;;;;22.00;61.10;;;;;;4963032;28;20038;-63
2022/05/24 00:49:53;;;;;;;2.55;1.95;;;22.00;60.80;;;;;;4965167;28;19918;-64
2022/05/24 00:52:33;;;;;;;2.28;1.70;;;22.00;61.30;;;;;;4965078;28;20042;-62
2022/05/24 00:55:00;;;;;;;1.95;1.83;;;22.00;61.10;;;;;;4968173;28;20077;-63
2022/05/24 00:57:31;;;;;;;2.17;1.45;;;22.00;61.00;;;;;;4968664;28;20069;-64
2022/05/24 01:00:15;;;;;;;2.13;1.73;;;22.00;60.90;;;;;;4967510;28;20082;-63
2022/05/24 01:02:44;;;;;;;2.60;1.80;;;22.00;60.70;;;;;;4969212;28;20509;-64
2022/05/24 01:05:22;;;;;;;2.03;1.48;;;22.00;60.70;;;;;;4968307;28;20073;-64
2022/05/24 01:07:48;;;;;;;1.92;1.73;;;22.00;60.70;;;;;;4969951;28;20046;-64
2022/05/24 01:10:29;;;;;;;1.70;1.48;;;22.00;60.60;;;;;;4967795;28;20046;-64
2022/05/24 01:13:01;;;;;;;2.00;1.75;;;22.00;60.50;;;;;;4969212;28;20431;-63
2022/05/24 01:15:27;;;;;;;1.77;1.45;;;22.00;60.60;;;;;;4950163;28;20514;-63
2022/05/24 01:17:54;;;;;;;1.55;1.45;;;22.00;60.60;;;;;;4967410;28;20038;-63
2022/05/24 01:20:20;;;;;;;1.50;1.40;;;22.00;60.60;;;;;;4967534;28;20039;-64
2022/05/24 01:23:15;;;;;;;1.65;1.55;;;22.00;60.60;;;;;;4960449;28;20071;-63
2022/05/24 01:26:08;;;;;;;1.60;1.50;;;22.00;60.50;;;;;;4967699;28;20031;-64
2022/05/24 01:28:56;;;;;;;1.65;1.55;;;22.00;60.40;;;;;;4948501;28;20045;-63
2022/05/24 01:31:22;;;;;;;2.00;1.63;;;22.00;60.50;;;;;;4947029;28;20047;-63
2022/05/24 01:36:38;;;;;;;1.83;1.73;;;21.90;60.50;;;;;;4968167;28;20261;-62
2022/05/24 01:39:09;;;;;;;2.05;1.70;;;21.90;60.40;;;;;;4966073;28;20047;-61
2022/05/24 01:41:44;;;;;;;1.77;1.67;;;22.00;60.50;;;;;;4966018;28;20953;-63
2022/05/24 01:44:12;;;;;;;2.35;1.92;;;21.90;60.40;;;;;;4968034;28;20049;-60
2022/05/24 01:46:43;;;;;;;2.55;1.70;;;21.90;60.30;;;;;;4949344;28;20122;-63
2022/05/24 01:49:40;;;;;;;2.03;1.92;;;22.00;60.40;;;;;;4950880;28;20402;-63
2022/05/24 01:52:19;;;;;;;2.38;1.83;;;22.00;60.20;;;;;;4959586;28;20054;-63
2022/05/24 01:55:11;;;;;;;3.05;1.70;;;21.90;60.40;;;;;;4934751;28;20050;-61
2022/05/24 01:57:45;;;;;;;2.80;2.60;;;21.90;60.00;;;;;;4967150;28;20058;-63
2022/05/24 02:00:14;;;;;;;2.15;1.95;;;21.90;60.20;;;;;;4964331;28;20081;-62
2022/05/24 02:02:44;;;;;;;2.42;2.22;;;21.90;60.20;;;;;;4945161;28;20116;-63
2022/05/24 02:05:10;;;;;;;2.40;2.20;;;21.90;60.10;;;;;;4962377;28;20043;-63
2022/05/24 02:07:37;;;;;;;1.90;1.80;;;21.90;60.10;;;;;;4964013;28;20065;-63
2022/05/24 02:10:03;;;;;;;3.08;2.50;;;21.90;60.10;;;;;;4966516;28;20045;-63
2022/05/24 02:12:38;;;;;;;2.15;2.05;;;21.90;60.10;;;;;;4966778;28;20057;-62
2022/05/24 02:15:17;;;;;;;3.67;2.80;;;21.90;60.00;;;;;;4967148;28;20046;-62
2022/05/24 02:17:47;;;;;;;3.53;2.30;;;21.90;60.00;;;;;;4965450;28;20134;-62
2022/05/24 02:20:19;;;;;;;3.17;2.70;;;21.90;60.10;;;;;;4937848;28;20483;-63
2022/05/24 02:22:47;;;;;;;2.60;2.03;;;21.90;60.10;;;;;;4967867;28;20131;-62
2022/05/24 02:25:18;;;;;;;3.17;2.63;;;21.90;60.00;;;;;;4965627;28;20316;-63
2022/05/24 02:27:45;;;;;;;2.50;2.30;;;21.90;60.00;;;;;;4967116;28;20050;-63
2022/05/24 02:30:18;;;;;;;2.45;2.25;;;21.90;60.00;;;;;;4966716;28;20557;-63
2022/05/24 02:32:43;;;;;;;3.67;2.35;;;21.90;60.00;;;;;;4967184;28;20565;-63
2022/05/24 02:35:09;;;;;;;2.35;2.00;;;21.90;60.00;;;;;;4966131;28;20043;-63
2022/05/24 02:37:35;;;;;;;3.13;2.65;;;21.90;60.00;;;;;;4967524;28;20065;-63
2022/05/24 02:42:46;;;;;;;2.45;2.25;;;21.90;60.00;;;;;;4966747;28;20053;-62
2022/05/24 02:45:11;;;;;;;1.98;1.88;;;21.90;60.00;;;;;;4965044;28;20043;-63
2022/05/24 02:47:37;;;;;;;2.22;2.03;;;21.90;59.90;;;;;;4964201;28;20035;-62
2022/05/24 02:50:04;;;;;;;2.50;2.30;;;21.90;60.00;;;;;;4967239;28;20125;-62
2022/05/24 02:52:30;;;;;;;2.42;2.13;;;21.90;59.90;;;;;;4965566;28;20047;-63
2022/05/24 02:54:56;;;;;;;3.13;2.35;;;21.90;59.90;;;;;;4966704;28;20038;-63
2022/05/24 02:57:23;;;;;;;2.88;2.67;;;21.90;59.90;;;;;;4964460;28;20088;-61
2022/05/24 02:59:49;;;;;;;2.50;2.30;;;21.90;59.90;;;;;;4966558;28;20043;-63
2022/05/24 03:02:15;;;;;;;2.95;2.67;;;21.90;59.90;;;;;;4967170;28;21059;-63
2022/05/24 03:04:41;;;;;;;3.22;2.92;;;21.90;59.80;;;;;;4967052;28;20031;-63
2022/05/24 03:09:51;;;;;;;3.10;2.25;;;21.90;59.90;;;;;;4964939;28;20031;-63
2022/05/24 03:15:04;;;;;;;2.15;1.95;;;21.90;59.90;;;;;;4963176;28;20166;-62
2022/05/24 03:17:30;;;;;;;3.17;2.90;;;21.90;59.80;;;;;;4962090;28;20543;-61
2022/05/24 03:19:56;;;;;;;3.30;3.00;;;21.90;59.80;;;;;;4959261;28;20129;-62
2022/05/24 03:22:22;;;;;;;2.88;2.28;;;21.90;59.80;;;;;;4965291;28;20030;-63
2022/05/24 03:24:47;;;;;;;3.08;2.72;;;21.90;59.70;;;;;;4964167;28;20466;-63
2022/05/24 03:27:13;;;;;;;2.70;2.50;;;21.90;59.70;;;;;;4964503;28;20038;-63
2022/05/24 03:29:44;;;;;;;2.50;2.30;;;21.90;59.80;;;;;;4963836;28;20045;-63
2022/05/24 03:32:11;;;;;;;3.30;2.92;;;21.90;59.70;;;;;;4965211;28;20041;-62
2022/05/24 03:34:38;;;;;;;2.50;2.30;;;21.90;59.70;;;;;;4930247;28;20043;-63
2022/05/24 03:37:04;;;;;;;2.72;2.53;;;21.90;59.60;;;;;;4965785;28;20507;-61
2022/05/24 03:39:30;;;;;;;2.88;2.60;;;21.80;59.60;;;;;;4964829;28;20120;-64
2022/05/24 03:41:56;;;;;;;2.58;2.20;;;21.80;59.50;;;;;;4946844;28;20043;-61
2022/05/24 03:44:21;;;;;;;2.60;2.40;;;21.80;59.50;;;;;;4964048;28;20116;-63
2022/05/24 03:46:47;;;;;;;2.60;2.40;;;21.80;59.50;;;;;;4947270;28;20093;-63
2022/05/24 03:49:15;;;;;;;3.00;2.50;;;21.80;59.50;;;;;;4962372;28;20124;-63
2022/05/24 03:51:41;;;;;;;2.97;2.60;;;21.80;59.60;;;;;;4964135;28;20372;-62
2022/05/24 03:54:07;;;;;;;2.30;2.10;;;21.80;59.50;;;;;;4945651;28;20041;-63
2022/05/24 03:56:37;;;;;;;2.47;2.28;;;21.90;59.60;;;;;;4955566;28;20049;-64
2022/05/24 03:59:03;;;;;;;3.10;2.80;;;21.80;59.50;;;;;;4964731;28;20125;-63
2022/05/24 04:01:28;;;;;;;3.50;2.78;;;21.80;59.40;;;;;;4960717;28;20500;-63
2022/05/24 04:03:54;;;;;;;4.90;2.90;;;21.80;59.40;;;;;;4960464;28;20073;-62
2022/05/24 04:06:20;;;;;;;3.70;2.60;;;21.80;59.40;;;;;;4944792;28;20109;-63
2022/05/24 04:08:45;;;;;;;2.55;2.35;;;21.80;59.40;;;;;;4964496;28;20569;-63
2022/05/24 04:11:12;;;;;;;4.20;3.15;;;21.80;59.40;;;;;;4964449;28;20043;-63
2022/05/24 04:13:40;;;;;;;3.00;2.70;;;21.80;59.30;;;;;;4941137;28;20109;-64
2022/05/24 04:16:06;;;;;;;3.10;2.75;;;21.80;59.30;;;;;;4962500;28;20051;-63
2022/05/24 04:18:32;;;;;;;2.90;2.60;;;21.80;59.30;;;;;;4963220;28;20039;-63
2022/05/24 04:20:58;;;;;;;3.40;2.80;;;21.80;59.20;;;;;;4962841;28;20043;-64
2022/05/24 04:23:25;;;;;;;2.83;2.63;;;21.80;59.00;;;;;;4964931;28;20041;-63
2022/05/24 04:25:52;;;;;;;2.78;2.38;;;21.80;59.10;;;;;;4963627;28;20050;-62
2022/05/24 04:28:21;;;;;;;6.20;3.13;;;21.80;59.00;;;;;;4962218;28;20105;-64
2022/05/24 04:30:49;;;;;;;4.45;3.30;;;21.80;59.10;;;;;;4945573;28;20077;-61
2022/05/24 04:33:16;;;;;;;3.28;2.97;;;21.80;59.00;;;;;;4963314;28;20039;-61
2022/05/24 04:35:43;;;;;;;4.05;3.65;;;21.80;59.00;;;;;;4963919;28;20051;-63
2022/05/24 04:38:09;;;;;;;3.92;3.28;;;21.80;58.90;;;;;;4964700;28;20478;-62
2022/05/24 04:43:19;;;;;;;4.22;3.30;;;21.80;58.80;;;;;;4963265;28;20336;-64
2022/05/24 04:45:45;;;;;;;4.15;3.75;;;21.80;58.80;;;;;;4963497;28;20499;-63
2022/05/24 04:48:11;;;;;;;4.45;3.75;;;21.80;58.80;;;;;;4964352;28;20106;-62
2022/05/24 04:50:37;;;;;;;6.78;3.67;;;21.80;58.70;;;;;;4944053;28;20042;-64
2022/05/24 04:53:02;;;;;;;4.05;3.60;;;21.80;58.80;;;;;;4956261;28;20407;-63
2022/05/24 04:55:28;;;;;;;4.07;3.70;;;21.80;58.70;;;;;;4941801;28;20031;-63
2022/05/24 04:57:55;;;;;;;4.35;3.35;;;21.80;58.60;;;;;;4960694;28;20622;-61
2022/05/24 05:00:23;;;;;;;5.68;3.45;;;21.70;58.60;;;;;;4962066;28;20042;-63
2022/05/24 05:02:49;;;;;;;5.70;3.45;;;21.80;58.60;;;;;;4960935;28;20907;-64
2022/05/24 05:05:15;;;;;;;3.03;2.72;;;21.80;58.50;;;;;;4960240;28;20117;-64
2022/05/24 05:07:42;;;;;;;4.22;3.33;;;21.80;58.60;;;;;;4963426;28;20066;-64
2022/05/24 05:10:09;;;;;;;6.00;3.47;;;21.80;58.60;;;;;;4961919;28;20043;-65
2022/05/24 05:12:36;;;;;;;5.18;3.47;;;21.70;58.60;;;;;;4961905;28;20717;-64
2022/05/24 05:15:03;;;;;;;4.13;3.22;;;21.80;58.60;;;;;;4945050;28;20038;-63
2022/05/24 05:17:38;;;;;;;3.95;3.08;;;21.80;58.60;;;;;;4964169;28;20395;-63
2022/05/24 05:20:05;;;;;;;6.75;3.80;;;21.80;58.60;;;;;;4947039;28;20074;-62
2022/05/24 05:22:30;;;;;;;5.00;3.38;;;21.80;58.60;;;;;;4946247;28;20039;-63
2022/05/24 05:24:56;;;;;;;3.83;3.00;;;21.70;58.50;;;;;;4947133;28;20097;-68
2022/05/24 05:27:21;;;;;;;3.45;3.08;;;21.80;58.50;;;;;;4964343;28;20038;-64
2022/05/24 05:32:31;;;;;;;5.10;3.50;;;21.70;58.40;;;;;;4962882;28;21378;-63
2022/05/24 05:35:00;;;;;;;3.47;3.17;;;21.70;58.30;;;;;;4961952;28;20038;-68
2022/05/24 05:37:31;;;;;;;4.53;3.10;;;21.70;58.10;;;;;;4954517;28;21186;-63
2022/05/24 05:40:04;;;;;;;4.22;3.47;;;21.70;58.10;;;;;;4964060;28;20046;-65
2022/05/24 05:42:30;;;;;;;;;;;21.70;58.20;;;;;;4965006;28;20041;-64
2022/05/24 05:44:56;;;;;;;6.40;3.40;;;21.70;58.00;;;;;;4946362;28;19922;-63
2022/05/24 05:47:22;;;;;;;5.90;3.47;;;21.70;58.20;;;;;;4964839;28;20523;-64
2022/05/24 05:49:47;;;;;;;7.63;3.70;;;21.70;58.10;;;;;;4966006;28;20550;-66
2022/05/24 05:52:13;;;;;;;5.82;4.25;;;21.70;57.90;;;;;;4964510;28;20089;-66
2022/05/24 05:54:39;;;;;;;4.35;3.13;;;21.70;57.80;;;;;;4964073;28;20464;-66
2022/05/24 05:57:08;;;;;;;5.50;5.00;;;21.70;57.60;;;;;;4944440;28;20042;-62
2022/05/24 05:59:33;;;;;;;9.15;4.53;;;21.70;57.40;;;;;;4964105;28;20073;-61
2022/05/24 06:02:00;;;;;;;7.60;4.43;;;21.70;57.30;;;;;;4964154;28;20456;-64
2022/05/24 06:04:26;;;;;;;8.70;5.40;;;21.70;57.30;;;;;;4962196;28;20043;-64
2022/05/24 06:06:53;;;;;;;8.32;5.25;;;21.70;57.20;;;;;;4965119;28;20061;-63
2022/05/24 06:09:19;;;;;;;8.02;5.20;;;21.70;57.30;;;;;;4963915;28;20055;-64
2022/05/24 06:11:45;;;;;;;7.28;4.78;;;21.70;57.20;;;;;;4965679;28;20113;-67
2022/05/24 06:14:11;;;;;;;11.15;6.28;;;21.70;57.10;;;;;;4964203;28;20043;-65
2022/05/24 06:16:38;;;;;;;9.05;5.57;;;21.70;56.80;;;;;;4964152;28;20498;-66
2022/05/24 06:19:05;;;;;;;11.98;6.88;;;21.70;56.80;;;;;;4962834;28;20047;-63
2022/05/24 06:21:34;;;;;;;6.45;5.30;;;21.70;56.30;;;;;;4965291;28;20043;-63
2022/05/24 06:24:03;;;;;;;7.07;5.38;;;21.70;56.40;;;;;;4961198;28;20031;-64
2022/05/24 06:26:29;;;;;;;9.00;5.90;;;21.70;56.50;;;;;;4965161;28;20046;-63
2022/05/24 06:28:57;;;;;;;7.72;5.20;;;21.70;56.90;;;;;;4947144;28;20102;-64
2022/05/24 06:31:23;;;;;;;7.78;5.68;;;21.70;57.00;;;;;;4965747;28;20075;-64
2022/05/24 06:33:48;;;;;;;5.90;5.25;;;21.70;56.90;;;;;;4962430;28;20089;-65
2022/05/24 06:36:14;;;;;;;7.35;5.70;;;21.70;56.80;;;;;;4941238;28;20059;-62
2022/05/24 06:38:40;;;;;;;9.57;5.55;;;21.70;56.60;;;;;;4960209;28;20054;-64
2022/05/24 06:41:09;;;;;;;7.80;5.25;;;21.70;56.60;;;;;;4964641;28;20038;-63
2022/05/24 06:43:44;;;;;;;8.75;5.07;;;21.70;56.50;;;;;;4945135;28;20371;-64
2022/05/24 06:46:13;;;;;;;6.85;5.18;;;21.70;56.30;;;;;;4944867;28;20057;-64
2022/05/24 06:48:43;;;;;;;7.65;6.20;;;21.70;56.10;;;;;;4966365;28;20046;-62
2022/05/24 06:51:16;;;;;;;6.40;5.57;;;21.70;55.50;;;;;;4945257;28;20775;-63
2022/05/24 06:53:44;;;;;;;9.68;5.60;;;21.70;55.40;;;;;;4952808;28;20078;-63
2022/05/24 06:56:34;;;;;;;8.25;6.00;;;21.60;55.30;;;;;;4955487;28;20042;-64
2022/05/24 07:04:31;;;;;;;6.95;5.13;;;21.60;55.20;;;;;;4964032;28;20089;-59
2022/05/24 07:06:57;;;;;;;10.40;4.80;;;21.60;55.20;;;;;;4960829;28;20043;-60
2022/05/24 07:09:28;;;;;;;9.15;5.18;;;21.50;55.10;;;;;;4962102;28;20560;-60
2022/05/24 07:11:54;;;;;;;7.85;5.18;;;21.50;55.00;;;;;;4961545;28;20039;-61
2022/05/24 07:14:19;;;;;;;8.07;5.50;;;21.50;55.00;;;;;;4963892;28;20049;-61
2022/05/24 07:16:45;;;;;;;7.82;4.97;;;21.50;54.90;;;;;;4964261;28;20661;-62
2022/05/24 07:19:10;;;;;;;6.20;4.70;;;21.50;54.90;;;;;;4965534;28;20049;-62
2022/05/24 07:21:36;;;;;;;8.90;5.40;;;21.50;54.80;;;;;;4964890;28;20412;-58
2022/05/24 07:24:01;;;;;;;7.35;5.50;;;21.50;54.70;;;;;;4961713;28;20153;-62
2022/05/24 07:26:27;;;;;;;8.80;5.32;;;21.50;54.60;;;;;;4963145;28;20042;-61
2022/05/24 07:28:52;;;;;;;7.85;5.30;;;21.50;54.70;;;;;;4963163;28;20043;-60
2022/05/24 07:31:18;;;;;;;9.35;4.70;;;21.50;54.70;;;;;;4978680;28;20047;-62
2022/05/24 07:33:43;;;;;;;8.88;4.57;;;21.50;54.60;;;;;;4959163;28;20343;-62
2022/05/24 07:36:09;;;;;;;13.05;5.13;;;21.50;54.70;;;;;;4962471;28;20105;-61
2022/05/24 07:38:35;;;;;;;6.20;4.93;;;21.50;54.60;;;;;;4961085;28;20073;-64
2022/05/24 07:46:30;;;;;;;8.43;4.93;;;21.40;54.80;;;;;;4964113;28;20109;-65
2022/05/24 07:48:56;;;;;;;6.43;4.90;;;21.40;54.70;;;;;;4962421;28;20085;-67
2022/05/24 07:51:21;;;;;;;8.95;4.40;;;21.40;55.20;;;;;;4964372;28;20415;-65
2022/05/24 07:53:47;;;;;;;7.07;4.40;;;21.40;54.50;;;;;;4945807;28;20675;-65
2022/05/24 07:56:15;;;;;;;6.95;4.68;;;21.40;54.50;;;;;;4963757;28;20404;-65
2022/05/24 07:58:44;;;;;;;6.47;4.22;;;21.40;54.20;;;;;;4961113;28;20062;-65
2022/05/24 08:01:10;;;;;;;7.45;3.70;;;21.40;54.30;;;;;;4964397;28;20055;-65
2022/05/24 08:03:38;;;;;;;6.05;3.67;;;21.40;54.60;;;;;;4963947;28;20034;-64
2022/05/24 08:06:04;;;;;;;6.70;3.55;;;21.40;54.90;;;;;;4943623;28;20027;-64
2022/05/24 08:08:30;;;;;;;7.00;3.10;;;21.40;55.20;;;;;;4962536;28;20062;-64
2022/05/24 08:10:56;;;;;;;4.15;2.80;;;21.40;55.40;;;;;;4962248;28;20120;-64
2022/05/24 08:13:22;;;;;;;7.72;3.17;;;21.50;55.40;;;;;;4964147;28;20050;-64
2022/05/24 08:15:52;;;;;;;8.43;3.05;;;21.40;55.50;;;;;;4960442;28;20054;-65
2022/05/24 08:18:19;;;;;;;6.20;3.00;;;21.50;56.00;;;;;;4963650;28;20039;-65
2022/05/24 08:20:46;;;;;;;4.35;3.10;;;21.50;55.90;;;;;;4962761;28;20049;-64
2022/05/24 08:23:12;;;;;;;11.88;3.05;;;21.50;56.10;;;;;;4965270;28;20039;-66
2022/05/24 08:25:37;;;;;;;5.63;2.78;;;21.50;56.10;;;;;;4941833;29;20125;-63
2022/05/24 08:28:07;;;;;;;8.43;2.88;;;21.50;56.20;;;;;;4959393;28;20039;-65
2022/05/24 08:30:34;;;;;;;2.70;2.35;;;21.50;56.30;;;;;;4963719;28;20163;-64
2022/05/24 08:33:04;;;;;;;7.57;2.90;;;21.50;56.40;;;;;;4962643;28;20039;-66
2022/05/24 08:35:32;;;;;;;3.85;2.47;;;21.50;56.40;;;;;;4963867;28;20141;-63
2022/05/24 08:37:58;;;;;;;6.07;2.60;;;21.50;56.40;;;;;;4962814;28;20055;-64
2022/05/24 08:40:23;;;;;;;7.88;2.80;;;21.50;56.40;;;;;;4965398;28;20039;-64
2022/05/24 08:43:16;;;;;;;5.03;2.60;;;21.50;56.40;;;;;;4963347;28;20435;-65
2022/05/24 08:49:00;;;;;;;4.72;2.80;;;21.50;56.20;;;;;;4962696;28;20059;-64
2022/05/24 08:51:29;;;;;;;4.80;2.58;;;21.50;56.20;;;;;;4963371;28;20375;-67
2022/05/24 08:54:00;;;;;;;5.03;2.42;;;21.60;56.40;;;;;;4943684;28;20171;-64
2022/05/24 08:56:30;;;;;;;4.20;2.20;;;21.60;56.50;;;;;;4944743;28;20046;-63
2022/05/24 08:59:28;;;;;;;3.87;2.47;;;21.60;56.50;;;;;;4953389;28;20132;-64
2022/05/24 09:01:56;;;;;;;5.68;2.28;;;21.60;56.50;;;;;;4950295;28;20047;-64
2022/05/24 09:04:22;;;;;;;4.78;2.33;;;21.60;56.60;;;;;;4959939;28;20529;-63
2022/05/24 09:07:06;;;;;;;4.88;2.28;;;21.60;57.50;;;;;;4963859;28;20376;-64
2022/05/24 09:09:50;;;;;;;5.88;2.55;;;21.60;56.80;;;;;;4964330;28;20675;-64
2022/05/24 09:12:44;;;;;;;3.95;2.00;;;21.60;56.70;;;;;;4955993;28;20043;-63
2022/05/24 09:15:28;;;;;;;3.47;2.20;;;21.60;56.70;;;;;;4962695;28;20042;-64
2022/05/24 09:18:14;;;;;;;5.32;2.00;;;21.60;56.60;;;;;;4966486;28;20073;-63
2022/05/24 09:20:44;;;;;;;5.50;2.10;;;21.60;56.60;;;;;;4963631;28;20685;-63
2022/05/24 09:23:25;;;;;;;3.30;1.80;;;21.60;56.40;;;;;;4966539;28;20430;-64
2022/05/24 09:25:57;;;;;;;3.30;2.00;;;21.60;56.40;;;;;;4966992;28;20070;-64
2022/05/24 09:29:05;;;;;;;4.78;1.80;;;21.60;56.30;;;;;;4958797;28;20720;-64
2022/05/24 09:31:43;;;;;;;4.57;2.60;;;21.60;55.70;;;;;;4959411;28;20058;-63
2022/05/24 09:34:18;;;;;;;3.05;2.00;;;21.60;55.00;;;;;;4964377;28;20117;-64
2022/05/24 09:37:05;;;;;;;5.03;2.03;;;21.60;55.40;;;;;;4965160;28;20166;-63
2022/05/24 09:39:35;;;;;;;3.53;1.70;;;21.60;55.00;;;;;;4966273;28;20134;-65
2022/05/24 09:42:10;;;;;;;3.42;2.00;;;21.50;54.90;;;;;;4967670;28;20049;-65
2022/05/24 09:45:00;;;;;;;1.88;1.50;;;21.60;55.00;;;;;;4959900;28;20046;-65
2022/05/24 09:47:29;;;;;;;3.65;1.63;;;21.60;54.90;;;;;;4965432;28;20031;-65
2022/05/24 09:50:14;;;;;;;2.65;1.75;;;21.60;55.00;;;;;;4967336;28;20034;-65
2022/05/24 09:52:40;;;;;;;2.50;1.83;;;21.60;54.80;;;;;;4966737;28;20045;-65
2022/05/24 09:55:06;;;;;;;5.35;1.65;;;21.50;54.80;;;;;;4967245;28;20501;-64
2022/05/24 09:57:35;;;;;;;5.18;1.50;;;21.50;54.80;;;;;;4960809;28;20042;-65
2022/05/24 10:00:13;;;;;;;3.15;1.63;;;21.50;54.80;;;;;;4965716;28;20125;-65
2022/05/24 10:02:39;;;;;;;2.35;1.30;;;21.60;54.80;;;;;;4928544;28;20082;-66
2022/05/24 10:05:23;;;;;;;2.67;1.40;;;21.50;54.70;;;;;;4965925;28;20117;-66
2022/05/24 10:08:26;;;;;;;3.78;1.30;;;21.60;54.70;;;;;;4963902;28;20039;-64
2022/05/24 10:10:56;;;;;;;1.58;1.20;;;21.50;54.60;;;;;;4960981;28;20047;-64
2022/05/24 10:13:34;;;;;;;2.50;1.17;;;21.50;54.80;;;;;;4965193;28;20072;-63
2022/05/24 10:16:11;;;;;;;2.78;1.40;;;21.50;54.80;;;;;;4946958;28;20161;-64
2022/05/24 10:19:08;;;;;;;3.30;1.52;;;21.50;54.70;;;;;;4965354;28;20042;-65
2022/05/24 10:21:44;;;;;;;2.45;1.10;;;21.50;54.70;;;;;;4965274;28;20442;-63
2022/05/24 10:24:23;;;;;;;5.65;1.50;;;21.50;54.90;;;;;;4964934;28;20399;-64
2022/05/24 10:27:25;;;;;;;2.97;1.20;;;21.60;55.20;;;;;;4956501;28;20043;-65
2022/05/24 10:30:06;;;;;;;4.32;1.30;;;21.60;55.20;;;;;;4965083;28;20050;-64
2022/05/24 10:39:35;;;;;;;1.80;1.10;;;21.60;55.50;;;;;;4958582;28;20398;-64
2022/05/24 10:42:43;;;;;;;2.28;1.00;;;21.60;55.60;;;;;;4965480;28;20065;-65
2022/05/24 10:45:16;;;;;;;2.95;1.20;;;21.60;55.60;;;;;;4961802;28;20035;-64
2022/05/24 10:48:04;;;;;;;1.25;0.95;;;21.60;55.70;;;;;;4945878;28;20034;-62
2022/05/24 10:50:35;;;;;;;1.55;0.80;;;21.60;55.80;;;;;;4963381;28;20055;-62
2022/05/24 10:53:11;;;;;;;2.42;1.65;;;21.60;55.60;;;;;;4964672;28;20042;-60
2022/05/24 10:56:15;;;;;;;3.70;1.17;;;21.60;55.80;;;;;;4964447;28;20450;-59
2022/05/24 10:58:42;;;;;;;1.48;0.93;;;21.60;55.90;;;;;;4929270;28;20059;-59
2022/05/24 11:01:25;;;;;;;2.15;0.90;;;21.60;55.90;;;;;;4955797;28;20030;-59
2022/05/24 11:03:56;;;;;;;2.28;1.00;;;21.60;55.80;;;;;;4964544;28;20761;-61
2022/05/24 11:06:32;;;;;;;2.05;0.90;;;21.60;56.00;;;;;;4943889;28;20038;-63
2022/05/24 11:09:04;;;;;;;2.75;0.95;;;21.60;56.00;;;;;;4963726;28;20051;-60
2022/05/24 11:11:53;;;;;;;2.55;0.80;;;21.60;55.80;;;;;;4965371;28;20038;-60
2022/05/24 11:14:33;;;;;;;3.30;0.93;;;21.60;55.70;;;;;;4963355;28;20074;-61
2022/05/24 11:17:00;;;;;;;2.78;0.70;;;21.60;55.60;;;;;;4962194;28;20046;-61
2022/05/24 11:19:31;;;;;;;2.13;0.80;;;21.60;55.60;;;;;;4946112;28;20054;-60
2022/05/24 11:22:06;;;;;;;1.30;0.75;;;21.60;55.50;;;;;;4964854;28;20046;-60
2022/05/24 11:24:40;;;;;;;3.03;1.25;;;21.60;55.70;;;;;;4964344;28;20046;-64
2022/05/24 11:27:10;;;;;;;3.03;0.80;;;21.60;55.50;;;;;;4960429;28;20705;-61
2022/05/24 11:29:44;;;;;;;1.55;0.75;;;21.60;55.50;;;;;;4964149;28;20051;-60
2022/05/24 11:32:11;;;;;;;0.75;0.68;;;21.60;55.40;;;;;;4963301;28;20057;-62
2022/05/24 11:34:58;;;;;;;0.75;0.65;;;21.50;55.40;;;;;;4961731;28;20038;-60
2022/05/24 11:37:28;;;;;;;3.10;0.68;;;21.60;55.40;;;;;;4961740;28;20062;-62
2022/05/24 11:39:54;;;;;;;1.10;0.90;;;21.60;55.60;;;;;;4944629;28;20053;-64
2022/05/24 11:42:33;;;;;;;0.95;0.70;;;21.50;55.30;;;;;;4963038;28;20034;-62
2022/05/24 11:45:20;;;;;;;1.33;0.85;;;21.50;55.40;;;;;;4964461;28;20039;-61
2022/05/24 11:47:46;;;;;;;0.82;0.70;;;21.60;55.30;;;;;;4963761;28;20042;-59
2022/05/24 11:50:30;;;;;;;2.13;0.80;;;21.50;55.20;;;;;;4964014;28;20084;-60
2022/05/24 11:53:00;;;;;;;1.98;0.80;;;21.50;55.00;;;;;;4961922;28;20035;-61
2022/05/24 11:55:39;;;;;;;1.52;0.70;;;21.50;55.20;;;;;;4963320;28;20047;-60
2022/05/24 11:58:20;;;;;;;1.63;0.73;;;21.50;55.20;;;;;;4961882;28;20058;-60
2022/05/24 12:01:04;;;;;;;0.85;0.68;;;21.50;55.20;;;;;;4961306;28;20122;-60
2022/05/24 12:09:23;;;;;;;1.10;1.00;;;21.50;55.40;;;;;;4966228;28;20081;-60
2022/05/24 12:12:15;;;;;;;2.42;1.73;;;21.50;56.20;;;;;;4962010;28;20042;-60
2022/05/24 12:14:42;;;;;;;2.65;1.95;;;21.60;57.20;;;;;;4930975;28;20383;-59
2022/05/24 12:17:27;;;;;;;2.67;2.05;;;21.60;58.00;;;;;;4964590;28;20078;-59
2022/05/24 12:19:53;;;;;;;8.23;2.58;;;21.60;58.60;;;;;;4964305;28;20043;-61
2022/05/24 12:22:30;;;;;;;10.77;9.13;;;21.60;58.30;;;;;;4964776;28;20464;-59
2022/05/24 12:24:58;;;;;;;18.67;16.88;;;21.60;59.60;;;;;;4965138;28;20491;-62
2022/05/24 12:27:59;;;;;;;17.60;15.90;;;21.60;60.30;;;;;;4964093;28;20054;-63
2022/05/24 12:30:31;;;;;;;11.70;8.68;;;21.60;61.20;;;;;;4852656;29;20109;-59
2022/05/24 12:33:18;;;;;;;11.07;8.35;;;21.70;60.60;;;;;;4948005;28;20145;-60
2022/05/24 12:36:08;;;;;;;16.08;8.77;;;21.60;61.20;;;;;;4962165;28;20129;-60
2022/05/24 12:38:36;;;;;;;10.45;8.35;;;21.60;61.40;;;;;;4961281;28;20050;-58
2022/05/24 12:41:12;;;;;;;9.05;6.43;;;21.60;61.60;;;;;;4963497;28;20027;-59
2022/05/24 12:43:47;;;;;;;9.15;6.72;;;21.70;61.40;;;;;;4955096;28;20043;-59
2022/05/24 12:46:14;;;;;;;7.63;5.72;;;21.70;61.00;;;;;;4962531;28;20118;-62
2022/05/24 12:48:40;;;;;;;5.35;4.85;;;21.70;60.80;;;;;;4965242;28;20740;-61
2022/05/24 12:51:08;;;;;;;6.80;4.55;;;21.70;60.80;;;;;;4966811;28;20038;-60
2022/05/24 12:53:36;;;;;;;4.85;4.10;;;21.70;60.70;;;;;;4950100;28;20162;-63
2022/05/24 12:56:14;;;;;;;5.72;3.72;;;21.70;60.90;;;;;;4967387;28;20038;-62
2022/05/24 12:58:49;;;;;;;5.07;3.40;;;21.70;61.40;;;;;;4965162;28;20201;-59
2022/05/24 13:01:32;;;;;;;8.18;3.45;;;21.70;61.40;;;;;;4966677;28;20035;-60
2022/05/24 13:03:58;;;;;;;6.00;2.90;;;21.70;61.40;;;;;;4948040;28;20034;-59
2022/05/24 13:06:29;;;;;;;3.33;2.50;;;21.70;61.10;;;;;;4964639;28;20861;-62
2022/05/24 13:09:28;;;;;;;3.97;2.70;;;21.70;61.10;;;;;;4966378;28;20038;-60
2022/05/24 13:12:03;;;;;;;4.40;2.20;;;21.70;60.80;;;;;;4925454;28;20106;-61
2022/05/24 13:14:51;;;;;;;4.50;2.15;;;21.70;60.50;;;;;;4967935;28;20108;-60
2022/05/24 13:17:20;;;;;;;2.85;2.17;;;21.70;60.10;;;;;;4965838;28;20053;-60
2022/05/24 13:20:03;;;;;;;4.15;1.90;;;21.70;59.80;;;;;;4966722;28;20035;-59
2022/05/24 13:22:46;;;;;;;5.07;2.00;;;21.70;59.70;;;;;;4964878;28;20499;-58
2022/05/24 13:25:19;;;;;;;2.75;1.60;;;21.70;59.40;;;;;;4965900;28;20037;-61
2022/05/24 13:27:59;;;;;;;3.50;1.70;;;21.70;58.80;;;;;;4964353;28;20034;-59
2022/05/24 13:33:49;;;;;;;3.08;1.17;;;21.70;58.30;;;;;;4955188;28;20074;-61
2022/05/24 13:36:29;;;;;;;4.05;1.63;;;21.70;58.40;;;;;;4966682;28;20082;-60
2022/05/24 13:39:03;;;;;;;2.67;1.30;;;21.70;58.50;;;;;;4967037;28;20074;-59
2022/05/24 13:41:54;;;;;;;7.80;1.38;;;21.70;58.50;;;;;;4967467;28;20371;-60
2022/05/24 13:44:25;;;;;;;4.45;1.40;;;21.70;58.40;;;;;;4966606;28;20082;-63
2022/05/24 13:46:59;;;;;;;;;;;21.70;58.40;;;;;;4965292;28;20046;-60
2022/05/24 13:49:41;;;;;;;1.35;0.98;;;21.70;58.30;;;;;;4959834;28;19977;-60
2022/05/24 13:52:27;;;;;;;5.60;0.93;;;21.70;58.40;;;;;;4939061;28;20081;-60
2022/05/24 13:55:17;;;;;;;4.35;1.50;;;21.70;58.00;;;;;;4965008;28;20046;-59
2022/05/24 13:57:44;;;;;;;3.78;1.45;;;21.70;57.80;;;;;;4963481;28;20094;-59
2022/05/24 14:00:41;;;;;;;1.20;0.80;;;21.70;57.90;;;;;;4965734;28;20039;-60